sensor_id;sensor_type;location;lat;lon;timestamp;P1;durP1;ratioP1;P2;durP2;ratioP2
5981;SDS011;3018;48.730;9.336;2023-04-07T00:01:10;5.68;;;5.25;;
5981;SDS011;3018;48.730;9.336;2023-04-07T00:03:36;5.82;;;5.20;;
5981;SDS011;3018;48.730;9.336;2023-04-07T00:06:04;4.88;;;4.55;;
5981;SDS011;3018;48.730;9.336;2023-04-07T00:08:31;5.63;;;5.13;;
5981;SDS011;3018;48.730;9.336;2023-04-07T00:10:57;5.97;;;5.38;;
5981;SDS011;3018;48.730;9.336;2023-04-07T00:13:24;5.20;;;4.85;;
5981;SDS011;3018;48.730;9.336;2023-04-07T00:15:51;5.07;;;4.65;;
5981;SDS011;3018;48.730;9.336;2023-04-07T00:18:17;4.93;;;4.60;;
5981;SDS011;3018;48.730;9.336;2023-04-07T00:20:43;4.85;;;4.38;;
5981;SDS011;3018;48.730;9.336;2023-04-07T00:23:10;5.55;;;5.05;;
5981;SDS011;3018;48.730;9.336;2023-04-07T00:25:36;5.22;;;4.82;;
5981;SDS011;3018;48.730;9.336;2023-04-07T00:28:02;5.70;;;4.90;;
5981;SDS011;3018;48.730;9.336;2023-04-07T00:30:30;5.30;;;4.90;;
5981;SDS011;3018;48.730;9.336;2023-04-07T00:32:56;5.00;;;4.53;;
5981;SDS011;3018;48.730;9.336;2023-04-07T00:35:22;5.45;;;4.97;;
5981;SDS011;3018;48.730;9.336;2023-04-07T00:37:48;6.40;;;4.85;;
5981;SDS011;3018;48.730;9.336;2023-04-07T00:40:15;5.15;;;4.78;;
5981;SDS011;3018;48.730;9.336;2023-04-07T00:42:42;5.75;;;5.25;;
5981;SDS011;3018;48.730;9.336;2023-04-07T00:45:08;5.95;;;5.32;;
5981;SDS011;3018;48.730;9.336;2023-04-07T00:47:36;5.30;;;4.80;;
5981;SDS011;3018;48.730;9.336;2023-04-07T00:50:03;5.70;;;5.10;;
5981;SDS011;3018;48.730;9.336;2023-04-07T00:52:30;6.57;;;5.35;;
5981;SDS011;3018;48.730;9.336;2023-04-07T00:54:57;6.43;;;5.88;;
5981;SDS011;3018;48.730;9.336;2023-04-07T00:57:24;6.07;;;5.60;;
5981;SDS011;3018;48.730;9.336;2023-04-07T00:59:51;5.95;;;5.50;;
5981;SDS011;3018;48.730;9.336;2023-04-07T01:02:18;6.25;;;5.53;;
5981;SDS011;3018;48.730;9.336;2023-04-07T01:04:49;7.00;;;6.38;;
5981;SDS011;3018;48.730;9.336;2023-04-07T01:07:17;6.70;;;6.10;;
5981;SDS011;3018;48.730;9.336;2023-04-07T01:09:45;7.20;;;6.43;;
5981;SDS011;3018;48.730;9.336;2023-04-07T01:12:13;7.43;;;6.32;;
5981;SDS011;3018;48.730;9.336;2023-04-07T01:14:41;6.45;;;5.88;;
5981;SDS011;3018;48.730;9.336;2023-04-07T01:17:10;6.90;;;5.72;;
5981;SDS011;3018;48.730;9.336;2023-04-07T01:19:38;6.35;;;5.75;;
5981;SDS011;3018;48.730;9.336;2023-04-07T01:22:08;6.18;;;5.57;;
5981;SDS011;3018;48.730;9.336;2023-04-07T01:24:51;6.30;;;5.70;;
5981;SDS011;3018;48.730;9.336;2023-04-07T01:27:20;7.47;;;6.53;;
5981;SDS011;3018;48.730;9.336;2023-04-07T01:29:48;9.02;;;6.88;;
5981;SDS011;3018;48.730;9.336;2023-04-07T01:32:15;7.10;;;6.40;;
5981;SDS011;3018;48.730;9.336;2023-04-07T01:34:44;7.90;;;7.07;;
5981;SDS011;3018;48.730;9.336;2023-04-07T01:37:12;7.35;;;6.68;;
5981;SDS011;3018;48.730;9.336;2023-04-07T01:39:39;8.63;;;6.70;;
5981;SDS011;3018;48.730;9.336;2023-04-07T01:42:05;7.47;;;6.80;;
5981;SDS011;3018;48.730;9.336;2023-04-07T01:44:31;7.10;;;6.40;;
5981;SDS011;3018;48.730;9.336;2023-04-07T01:46:59;7.55;;;6.85;;
5981;SDS011;3018;48.730;9.336;2023-04-07T01:49:26;7.60;;;6.93;;
5981;SDS011;3018;48.730;9.336;2023-04-07T01:51:53;7.32;;;6.63;;
5981;SDS011;3018;48.730;9.336;2023-04-07T01:54:20;7.68;;;6.53;;
5981;SDS011;3018;48.730;9.336;2023-04-07T01:56:46;8.98;;;7.05;;
5981;SDS011;3018;48.730;9.336;2023-04-07T01:59:13;8.48;;;6.70;;
5981;SDS011;3018;48.730;9.336;2023-04-07T02:01:39;7.70;;;6.90;;
5981;SDS011;3018;48.730;9.336;2023-04-07T02:04:09;7.60;;;6.43;;
5981;SDS011;3018;48.730;9.336;2023-04-07T02:06:38;7.40;;;6.70;;
5981;SDS011;3018;48.730;9.336;2023-04-07T02:09:06;8.23;;;7.20;;
5981;SDS011;3018;48.730;9.336;2023-04-07T02:11:35;8.23;;;7.22;;
5981;SDS011;3018;48.730;9.336;2023-04-07T02:14:03;6.47;;;5.97;;
5981;SDS011;3018;48.730;9.336;2023-04-07T02:16:31;6.95;;;6.28;;
5981;SDS011;3018;48.730;9.336;2023-04-07T02:18:57;7.30;;;6.65;;
5981;SDS011;3018;48.730;9.336;2023-04-07T02:21:25;6.88;;;6.28;;
5981;SDS011;3018;48.730;9.336;2023-04-07T02:23:52;8.13;;;6.82;;
5981;SDS011;3018;48.730;9.336;2023-04-07T02:26:18;7.00;;;6.35;;
5981;SDS011;3018;48.730;9.336;2023-04-07T02:28:44;8.40;;;6.85;;
5981;SDS011;3018;48.730;9.336;2023-04-07T02:31:10;8.20;;;7.40;;
5981;SDS011;3018;48.730;9.336;2023-04-07T02:33:37;7.80;;;7.07;;
5981;SDS011;3018;48.730;9.336;2023-04-07T02:36:04;7.35;;;6.68;;
5981;SDS011;3018;48.730;9.336;2023-04-07T02:38:31;7.78;;;6.78;;
5981;SDS011;3018;48.730;9.336;2023-04-07T02:40:58;7.28;;;6.57;;
5981;SDS011;3018;48.730;9.336;2023-04-07T02:43:24;7.60;;;6.88;;
5981;SDS011;3018;48.730;9.336;2023-04-07T02:45:51;6.68;;;6.07;;
5981;SDS011;3018;48.730;9.336;2023-04-07T02:48:17;7.38;;;6.63;;
5981;SDS011;3018;48.730;9.336;2023-04-07T02:50:43;8.27;;;7.15;;
5981;SDS011;3018;48.730;9.336;2023-04-07T02:53:09;9.05;;;7.82;;
5981;SDS011;3018;48.730;9.336;2023-04-07T02:55:37;8.05;;;6.93;;
5981;SDS011;3018;48.730;9.336;2023-04-07T02:58:03;7.30;;;6.70;;
5981;SDS011;3018;48.730;9.336;2023-04-07T03:00:30;7.97;;;7.28;;
5981;SDS011;3018;48.730;9.336;2023-04-07T03:02:56;7.38;;;6.68;;
5981;SDS011;3018;48.730;9.336;2023-04-07T03:05:22;8.15;;;7.32;;
5981;SDS011;3018;48.730;9.336;2023-04-07T03:07:48;7.60;;;7.00;;
5981;SDS011;3018;48.730;9.336;2023-04-07T03:10:15;8.73;;;7.13;;
5981;SDS011;3018;48.730;9.336;2023-04-07T03:12:42;7.85;;;7.07;;
5981;SDS011;3018;48.730;9.336;2023-04-07T03:15:09;8.10;;;7.32;;
5981;SDS011;3018;48.730;9.336;2023-04-07T03:17:35;8.13;;;7.10;;
5981;SDS011;3018;48.730;9.336;2023-04-07T03:20:02;7.30;;;6.60;;
5981;SDS011;3018;48.730;9.336;2023-04-07T03:22:28;8.70;;;7.80;;
5981;SDS011;3018;48.730;9.336;2023-04-07T03:24:54;7.35;;;6.60;;
5981;SDS011;3018;48.730;9.336;2023-04-07T03:27:21;7.43;;;6.68;;
5981;SDS011;3018;48.730;9.336;2023-04-07T03:29:48;10.70;;;6.55;;
5981;SDS011;3018;48.730;9.336;2023-04-07T03:32:15;7.95;;;7.18;;
5981;SDS011;3018;48.730;9.336;2023-04-07T03:34:41;8.90;;;7.10;;
5981;SDS011;3018;48.730;9.336;2023-04-07T03:37:07;8.15;;;7.40;;
5981;SDS011;3018;48.730;9.336;2023-04-07T03:39:33;7.80;;;7.07;;
5981;SDS011;3018;48.730;9.336;2023-04-07T03:42:01;8.43;;;7.50;;
5981;SDS011;3018;48.730;9.336;2023-04-07T03:44:27;8.50;;;7.40;;
5981;SDS011;3018;48.730;9.336;2023-04-07T03:46:55;8.43;;;7.57;;
5981;SDS011;3018;48.730;9.336;2023-04-07T03:49:21;8.32;;;7.55;;
5981;SDS011;3018;48.730;9.336;2023-04-07T03:51:47;8.30;;;7.50;;
5981;SDS011;3018;48.730;9.336;2023-04-07T03:54:14;7.90;;;7.20;;
5981;SDS011;3018;48.730;9.336;2023-04-07T03:56:40;8.80;;;8.00;;
5981;SDS011;3018;48.730;9.336;2023-04-07T03:59:06;8.55;;;7.75;;
5981;SDS011;3018;48.730;9.336;2023-04-07T04:01:32;10.13;;;7.97;;
5981;SDS011;3018;48.730;9.336;2023-04-07T04:04:01;8.60;;;7.80;;
5981;SDS011;3018;48.730;9.336;2023-04-07T04:06:27;8.98;;;8.10;;
5981;SDS011;3018;48.730;9.336;2023-04-07T04:08:53;9.60;;;7.55;;
5981;SDS011;3018;48.730;9.336;2023-04-07T04:11:20;9.57;;;8.13;;
5981;SDS011;3018;48.730;9.336;2023-04-07T04:13:47;11.23;;;8.88;;
5981;SDS011;3018;48.730;9.336;2023-04-07T04:16:13;12.65;;;7.88;;
5981;SDS011;3018;48.730;9.336;2023-04-07T04:18:39;9.30;;;8.20;;
5981;SDS011;3018;48.730;9.336;2023-04-07T04:21:07;9.52;;;7.95;;
5981;SDS011;3018;48.730;9.336;2023-04-07T04:23:33;9.35;;;8.40;;
5981;SDS011;3018;48.730;9.336;2023-04-07T04:26:00;9.80;;;7.93;;
5981;SDS011;3018;48.730;9.336;2023-04-07T04:28:27;8.60;;;7.80;;
5981;SDS011;3018;48.730;9.336;2023-04-07T04:30:54;9.05;;;8.15;;
5981;SDS011;3018;48.730;9.336;2023-04-07T04:33:20;10.23;;;8.82;;
5981;SDS011;3018;48.730;9.336;2023-04-07T04:35:46;8.98;;;8.02;;
5981;SDS011;3018;48.730;9.336;2023-04-07T04:38:14;9.27;;;8.27;;
5981;SDS011;3018;48.730;9.336;2023-04-07T04:40:41;8.73;;;7.82;;
5981;SDS011;3018;48.730;9.336;2023-04-07T04:43:07;9.85;;;8.38;;
5981;SDS011;3018;48.730;9.336;2023-04-07T04:45:33;9.10;;;8.20;;
5981;SDS011;3018;48.730;9.336;2023-04-07T04:48:00;9.73;;;8.75;;
5981;SDS011;3018;48.730;9.336;2023-04-07T04:50:26;9.70;;;8.55;;
5981;SDS011;3018;48.730;9.336;2023-04-07T04:52:52;9.88;;;8.98;;
5981;SDS011;3018;48.730;9.336;2023-04-07T04:55:20;9.82;;;8.85;;
5981;SDS011;3018;48.730;9.336;2023-04-07T04:57:46;9.95;;;8.63;;
5981;SDS011;3018;48.730;9.336;2023-04-07T05:00:13;10.73;;;9.63;;
5981;SDS011;3018;48.730;9.336;2023-04-07T05:02:39;10.60;;;9.50;;
5981;SDS011;3018;48.730;9.336;2023-04-07T05:05:06;10.40;;;9.40;;
5981;SDS011;3018;48.730;9.336;2023-04-07T05:07:32;10.95;;;9.40;;
5981;SDS011;3018;48.730;9.336;2023-04-07T05:09:59;13.85;;;10.38;;
5981;SDS011;3018;48.730;9.336;2023-04-07T05:12:26;11.10;;;10.00;;
5981;SDS011;3018;48.730;9.336;2023-04-07T05:14:53;13.02;;;9.70;;
5981;SDS011;3018;48.730;9.336;2023-04-07T05:17:19;11.35;;;10.15;;
5981;SDS011;3018;48.730;9.336;2023-04-07T05:19:45;11.50;;;10.00;;
5981;SDS011;3018;48.730;9.336;2023-04-07T05:22:11;11.00;;;9.88;;
5981;SDS011;3018;48.730;9.336;2023-04-07T05:24:38;12.27;;;10.57;;
5981;SDS011;3018;48.730;9.336;2023-04-07T05:27:04;12.25;;;10.25;;
5981;SDS011;3018;48.730;9.336;2023-04-07T05:29:32;11.52;;;10.32;;
5981;SDS011;3018;48.730;9.336;2023-04-07T05:31:58;12.63;;;10.00;;
5981;SDS011;3018;48.730;9.336;2023-04-07T05:34:25;14.25;;;10.50;;
5981;SDS011;3018;48.730;9.336;2023-04-07T05:36:51;10.75;;;9.65;;
5981;SDS011;3018;48.730;9.336;2023-04-07T05:39:18;14.80;;;11.23;;
5981;SDS011;3018;48.730;9.336;2023-04-07T05:41:44;16.33;;;11.98;;
5981;SDS011;3018;48.730;9.336;2023-04-07T05:44:10;38.05;;;23.38;;
5981;SDS011;3018;48.730;9.336;2023-04-07T05:46:38;18.58;;;14.05;;
5981;SDS011;3018;48.730;9.336;2023-04-07T05:49:04;16.75;;;12.30;;
5981;SDS011;3018;48.730;9.336;2023-04-07T05:51:30;15.18;;;13.07;;
5981;SDS011;3018;48.730;9.336;2023-04-07T05:53:57;12.20;;;10.52;;
5981;SDS011;3018;48.730;9.336;2023-04-07T05:56:23;18.90;;;12.68;;
5981;SDS011;3018;48.730;9.336;2023-04-07T05:58:50;11.98;;;10.68;;
5981;SDS011;3018;48.730;9.336;2023-04-07T06:01:17;16.63;;;11.15;;
5981;SDS011;3018;48.730;9.336;2023-04-07T06:03:45;13.32;;;10.82;;
5981;SDS011;3018;48.730;9.336;2023-04-07T06:06:11;11.55;;;10.35;;
5981;SDS011;3018;48.730;9.336;2023-04-07T06:08:37;12.20;;;10.27;;
5981;SDS011;3018;48.730;9.336;2023-04-07T06:11:04;13.30;;;10.57;;
5981;SDS011;3018;48.730;9.336;2023-04-07T06:13:30;13.30;;;10.80;;
5981;SDS011;3018;48.730;9.336;2023-04-07T06:15:56;13.32;;;11.45;;
5981;SDS011;3018;48.730;9.336;2023-04-07T06:18:22;13.73;;;11.05;;
5981;SDS011;3018;48.730;9.336;2023-04-07T06:20:50;11.75;;;10.55;;
5981;SDS011;3018;48.730;9.336;2023-04-07T06:23:16;14.82;;;10.52;;
5981;SDS011;3018;48.730;9.336;2023-04-07T06:25:42;12.15;;;10.48;;
5981;SDS011;3018;48.730;9.336;2023-04-07T06:28:09;11.65;;;10.43;;
5981;SDS011;3018;48.730;9.336;2023-04-07T06:30:35;13.15;;;11.13;;
5981;SDS011;3018;48.730;9.336;2023-04-07T06:33:01;12.10;;;10.90;;
5981;SDS011;3018;48.730;9.336;2023-04-07T06:35:28;14.43;;;11.00;;
5981;SDS011;3018;48.730;9.336;2023-04-07T06:37:55;12.90;;;10.82;;
5981;SDS011;3018;48.730;9.336;2023-04-07T06:40:22;13.60;;;11.15;;
5981;SDS011;3018;48.730;9.336;2023-04-07T06:42:48;12.38;;;10.82;;
5981;SDS011;3018;48.730;9.336;2023-04-07T06:45:15;15.40;;;11.40;;
5981;SDS011;3018;48.730;9.336;2023-04-07T06:47:41;13.10;;;11.55;;
5981;SDS011;3018;48.730;9.336;2023-04-07T06:50:08;12.00;;;10.82;;
5981;SDS011;3018;48.730;9.336;2023-04-07T06:52:34;14.13;;;11.27;;
5981;SDS011;3018;48.730;9.336;2023-04-07T06:55:02;13.52;;;12.07;;
5981;SDS011;3018;48.730;9.336;2023-04-07T06:57:28;13.30;;;11.38;;
5981;SDS011;3018;48.730;9.336;2023-04-07T06:59:54;14.57;;;11.77;;
5981;SDS011;3018;48.730;9.336;2023-04-07T07:02:21;15.25;;;11.93;;
5981;SDS011;3018;48.730;9.336;2023-04-07T07:04:47;14.00;;;11.13;;
5981;SDS011;3018;48.730;9.336;2023-04-07T07:07:13;12.63;;;11.43;;
5981;SDS011;3018;48.730;9.336;2023-04-07T07:09:40;15.02;;;11.70;;
5981;SDS011;3018;48.730;9.336;2023-04-07T07:12:07;13.38;;;11.50;;
5981;SDS011;3018;48.730;9.336;2023-04-07T07:14:33;13.82;;;11.43;;
5981;SDS011;3018;48.730;9.336;2023-04-07T07:17:00;15.48;;;11.27;;
5981;SDS011;3018;48.730;9.336;2023-04-07T07:19:26;13.88;;;11.45;;
5981;SDS011;3018;48.730;9.336;2023-04-07T07:21:52;51.85;;;31.60;;
5981;SDS011;3018;48.730;9.336;2023-04-07T07:24:19;14.98;;;12.73;;
5981;SDS011;3018;48.730;9.336;2023-04-07T07:26:45;12.70;;;10.23;;
5981;SDS011;3018;48.730;9.336;2023-04-07T07:29:13;15.02;;;10.70;;
5981;SDS011;3018;48.730;9.336;2023-04-07T07:31:39;24.65;;;17.58;;
5981;SDS011;3018;48.730;9.336;2023-04-07T07:34:05;12.45;;;10.05;;
5981;SDS011;3018;48.730;9.336;2023-04-07T07:36:32;10.38;;;9.13;;
5981;SDS011;3018;48.730;9.336;2023-04-07T07:38:58;11.23;;;10.00;;
5981;SDS011;3018;48.730;9.336;2023-04-07T07:41:24;12.70;;;10.23;;
5981;SDS011;3018;48.730;9.336;2023-04-07T07:43:51;13.15;;;10.85;;
5981;SDS011;3018;48.730;9.336;2023-04-07T07:46:18;10.63;;;9.52;;
5981;SDS011;3018;48.730;9.336;2023-04-07T07:48:45;10.18;;;9.13;;
5981;SDS011;3018;48.730;9.336;2023-04-07T07:51:11;10.30;;;9.30;;
5981;SDS011;3018;48.730;9.336;2023-04-07T07:53:37;10.85;;;9.48;;
5981;SDS011;3018;48.730;9.336;2023-04-07T07:56:04;12.18;;;9.00;;
5981;SDS011;3018;48.730;9.336;2023-04-07T07:58:30;9.75;;;8.68;;
5981;SDS011;3018;48.730;9.336;2023-04-07T08:00:56;9.38;;;8.50;;
5981;SDS011;3018;48.730;9.336;2023-04-07T08:03:24;9.43;;;8.48;;
5981;SDS011;3018;48.730;9.336;2023-04-07T08:05:50;11.00;;;7.97;;
5981;SDS011;3018;48.730;9.336;2023-04-07T08:08:16;9.82;;;7.95;;
5981;SDS011;3018;48.730;9.336;2023-04-07T08:10:42;8.90;;;7.40;;
5981;SDS011;3018;48.730;9.336;2023-04-07T08:13:09;8.23;;;7.38;;
5981;SDS011;3018;48.730;9.336;2023-04-07T08:15:35;7.63;;;6.97;;
5981;SDS011;3018;48.730;9.336;2023-04-07T08:18:01;8.32;;;7.45;;
5981;SDS011;3018;48.730;9.336;2023-04-07T08:20:30;8.75;;;7.88;;
5981;SDS011;3018;48.730;9.336;2023-04-07T08:22:56;6.90;;;6.25;;
5981;SDS011;3018;48.730;9.336;2023-04-07T08:25:22;8.90;;;7.10;;
5981;SDS011;3018;48.730;9.336;2023-04-07T08:27:49;7.82;;;6.60;;
5981;SDS011;3018;48.730;9.336;2023-04-07T08:30:15;9.15;;;6.75;;
5981;SDS011;3018;48.730;9.336;2023-04-07T08:32:42;8.18;;;5.88;;
5981;SDS011;3018;48.730;9.336;2023-04-07T08:35:09;6.07;;;5.47;;
5981;SDS011;3018;48.730;9.336;2023-04-07T08:37:37;6.22;;;5.13;;
5981;SDS011;3018;48.730;9.336;2023-04-07T08:40:04;5.43;;;5.03;;
5981;SDS011;3018;48.730;9.336;2023-04-07T08:42:31;5.55;;;5.15;;
5981;SDS011;3018;48.730;9.336;2023-04-07T08:45:00;5.25;;;4.53;;
5981;SDS011;3018;48.730;9.336;2023-04-07T08:47:27;6.15;;;4.13;;
5981;SDS011;3018;48.730;9.336;2023-04-07T08:49:56;5.20;;;4.55;;
5981;SDS011;3018;48.730;9.336;2023-04-07T08:52:24;3.97;;;3.72;;
5981;SDS011;3018;48.730;9.336;2023-04-07T08:54:52;5.10;;;4.60;;
5981;SDS011;3018;48.730;9.336;2023-04-07T08:57:20;5.55;;;4.55;;
5981;SDS011;3018;48.730;9.336;2023-04-07T08:59:46;6.30;;;5.00;;
5981;SDS011;3018;48.730;9.336;2023-04-07T09:02:15;5.82;;;4.50;;
5981;SDS011;3018;48.730;9.336;2023-04-07T09:07:44;5.30;;;4.80;;
5981;SDS011;3018;48.730;9.336;2023-04-07T09:10:12;4.35;;;3.95;;
5981;SDS011;3018;48.730;9.336;2023-04-07T09:12:38;3.88;;;3.47;;
5981;SDS011;3018;48.730;9.336;2023-04-07T09:15:05;4.20;;;3.83;;
5981;SDS011;3018;48.730;9.336;2023-04-07T09:17:32;4.55;;;4.15;;
5981;SDS011;3018;48.730;9.336;2023-04-07T09:19:58;4.70;;;4.10;;
5981;SDS011;3018;48.730;9.336;2023-04-07T09:22:35;4.63;;;4.00;;
5981;SDS011;3018;48.730;9.336;2023-04-07T09:25:16;5.10;;;3.10;;
5981;SDS011;3018;48.730;9.336;2023-04-07T09:27:52;5.85;;;3.35;;
5981;SDS011;3018;48.730;9.336;2023-04-07T09:30:19;4.15;;;3.75;;
5981;SDS011;3018;48.730;9.336;2023-04-07T09:32:45;5.28;;;3.53;;
5981;SDS011;3018;48.730;9.336;2023-04-07T09:35:12;8.27;;;3.67;;
5981;SDS011;3018;48.730;9.336;2023-04-07T09:37:38;4.00;;;3.63;;
5981;SDS011;3018;48.730;9.336;2023-04-07T09:40:05;3.92;;;3.60;;
5981;SDS011;3018;48.730;9.336;2023-04-07T09:42:33;6.05;;;3.33;;
5981;SDS011;3018;48.730;9.336;2023-04-07T09:45:02;4.63;;;3.50;;
5981;SDS011;3018;48.730;9.336;2023-04-07T09:47:28;3.55;;;3.13;;
5981;SDS011;3018;48.730;9.336;2023-04-07T09:49:56;5.35;;;3.92;;
5981;SDS011;3018;48.730;9.336;2023-04-07T09:52:25;4.70;;;3.47;;
5981;SDS011;3018;48.730;9.336;2023-04-07T09:54:51;3.63;;;3.33;;
5981;SDS011;3018;48.730;9.336;2023-04-07T09:57:17;5.53;;;3.30;;
5981;SDS011;3018;48.730;9.336;2023-04-07T09:59:46;3.83;;;2.78;;
5981;SDS011;3018;48.730;9.336;2023-04-07T10:02:14;5.53;;;3.45;;
5981;SDS011;3018;48.730;9.336;2023-04-07T10:04:40;5.60;;;3.72;;
5981;SDS011;3018;48.730;9.336;2023-04-07T10:07:07;4.28;;;3.65;;
5981;SDS011;3018;48.730;9.336;2023-04-07T10:09:34;6.70;;;4.10;;
5981;SDS011;3018;48.730;9.336;2023-04-07T10:12:00;3.97;;;3.67;;
5981;SDS011;3018;48.730;9.336;2023-04-07T10:14:29;5.47;;;4.30;;
5981;SDS011;3018;48.730;9.336;2023-04-07T10:16:57;5.43;;;4.22;;
5981;SDS011;3018;48.730;9.336;2023-04-07T10:19:24;5.03;;;4.53;;
5981;SDS011;3018;48.730;9.336;2023-04-07T10:21:51;9.18;;;4.38;;
5981;SDS011;3018;48.730;9.336;2023-04-07T10:24:22;4.30;;;3.90;;
5981;SDS011;3018;48.730;9.336;2023-04-07T10:26:50;3.97;;;3.67;;
5981;SDS011;3018;48.730;9.336;2023-04-07T10:29:17;5.40;;;3.70;;
5981;SDS011;3018;48.730;9.336;2023-04-07T10:31:44;4.00;;;3.60;;
5981;SDS011;3018;48.730;9.336;2023-04-07T10:34:12;4.50;;;4.20;;
5981;SDS011;3018;48.730;9.336;2023-04-07T10:39:20;6.38;;;4.13;;
5981;SDS011;3018;48.730;9.336;2023-04-07T10:41:47;4.40;;;3.88;;
5981;SDS011;3018;48.730;9.336;2023-04-07T10:47:01;6.43;;;4.25;;
5981;SDS011;3018;48.730;9.336;2023-04-07T10:49:29;4.50;;;4.07;;
5981;SDS011;3018;48.730;9.336;2023-04-07T10:54:41;5.57;;;3.78;;
5981;SDS011;3018;48.730;9.336;2023-04-07T10:57:08;4.68;;;4.28;;
5981;SDS011;3018;48.730;9.336;2023-04-07T10:59:39;4.68;;;3.90;;
5981;SDS011;3018;48.730;9.336;2023-04-07T11:04:52;4.57;;;4.05;;
5981;SDS011;3018;48.730;9.336;2023-04-07T11:07:18;7.55;;;4.47;;
5981;SDS011;3018;48.730;9.336;2023-04-07T11:10:08;3.92;;;3.58;;
5981;SDS011;3018;48.730;9.336;2023-04-07T11:12:35;4.57;;;4.00;;
5981;SDS011;3018;48.730;9.336;2023-04-07T11:15:15;7.03;;;4.15;;
5981;SDS011;3018;48.730;9.336;2023-04-07T11:17:41;4.68;;;4.28;;
5981;SDS011;3018;48.730;9.336;2023-04-07T11:20:09;3.83;;;3.63;;
5981;SDS011;3018;48.730;9.336;2023-04-07T11:22:35;7.15;;;3.90;;
5981;SDS011;3018;48.730;9.336;2023-04-07T11:25:02;5.55;;;3.58;;
5981;SDS011;3018;48.730;9.336;2023-04-07T11:27:28;7.00;;;3.25;;
5981;SDS011;3018;48.730;9.336;2023-04-07T11:29:56;4.35;;;3.20;;
5981;SDS011;3018;48.730;9.336;2023-04-07T11:32:22;4.63;;;3.47;;
5981;SDS011;3018;48.730;9.336;2023-04-07T11:34:50;4.78;;;3.10;;
5981;SDS011;3018;48.730;9.336;2023-04-07T11:37:21;3.85;;;3.22;;
5981;SDS011;3018;48.730;9.336;2023-04-07T11:39:50;4.18;;;3.20;;
5981;SDS011;3018;48.730;9.336;2023-04-07T11:42:29;4.65;;;3.35;;
5981;SDS011;3018;48.730;9.336;2023-04-07T11:44:55;3.45;;;3.15;;
5981;SDS011;3018;48.730;9.336;2023-04-07T11:47:32;6.75;;;3.30;;
5981;SDS011;3018;48.730;9.336;2023-04-07T11:49:58;3.50;;;3.25;;
5981;SDS011;3018;48.730;9.336;2023-04-07T11:52:26;3.70;;;3.38;;
5981;SDS011;3018;48.730;9.336;2023-04-07T11:54:52;3.90;;;3.13;;
5981;SDS011;3018;48.730;9.336;2023-04-07T11:57:23;5.13;;;3.38;;
5981;SDS011;3018;48.730;9.336;2023-04-07T11:59:49;5.53;;;2.97;;
5981;SDS011;3018;48.730;9.336;2023-04-07T12:02:29;3.35;;;2.97;;
5981;SDS011;3018;48.730;9.336;2023-04-07T12:04:56;3.25;;;2.80;;
5981;SDS011;3018;48.730;9.336;2023-04-07T12:07:22;3.90;;;2.63;;
5981;SDS011;3018;48.730;9.336;2023-04-07T12:09:49;5.65;;;3.00;;
5981;SDS011;3018;48.730;9.336;2023-04-07T12:12:23;4.22;;;2.80;;
5981;SDS011;3018;48.730;9.336;2023-04-07T12:14:50;3.75;;;2.85;;
5981;SDS011;3018;48.730;9.336;2023-04-07T12:17:19;3.58;;;2.92;;
5981;SDS011;3018;48.730;9.336;2023-04-07T12:19:46;3.03;;;2.78;;
5981;SDS011;3018;48.730;9.336;2023-04-07T12:22:12;6.15;;;3.00;;
5981;SDS011;3018;48.730;9.336;2023-04-07T12:24:38;8.40;;;3.78;;
5981;SDS011;3018;48.730;9.336;2023-04-07T12:27:06;4.60;;;2.95;;
5981;SDS011;3018;48.730;9.336;2023-04-07T12:29:32;3.40;;;3.10;;
5981;SDS011;3018;48.730;9.336;2023-04-07T12:31:59;5.32;;;4.07;;
5981;SDS011;3018;48.730;9.336;2023-04-07T12:34:25;6.35;;;3.92;;
5981;SDS011;3018;48.730;9.336;2023-04-07T12:36:52;5.28;;;4.03;;
5981;SDS011;3018;48.730;9.336;2023-04-07T12:39:18;5.60;;;4.30;;
5981;SDS011;3018;48.730;9.336;2023-04-07T12:41:44;6.30;;;4.75;;
5981;SDS011;3018;48.730;9.336;2023-04-07T12:44:13;5.45;;;4.95;;
5981;SDS011;3018;48.730;9.336;2023-04-07T12:46:40;6.65;;;5.13;;
5981;SDS011;3018;48.730;9.336;2023-04-07T12:49:07;5.90;;;5.35;;
5981;SDS011;3018;48.730;9.336;2023-04-07T12:51:33;9.02;;;5.50;;
5981;SDS011;3018;48.730;9.336;2023-04-07T12:53:59;5.35;;;4.88;;
5981;SDS011;3018;48.730;9.336;2023-04-07T12:56:26;5.45;;;4.60;;
5981;SDS011;3018;48.730;9.336;2023-04-07T12:58:52;5.80;;;4.78;;
5981;SDS011;3018;48.730;9.336;2023-04-07T13:01:20;6.07;;;5.10;;
5981;SDS011;3018;48.730;9.336;2023-04-07T13:03:46;5.90;;;4.80;;
5981;SDS011;3018;48.730;9.336;2023-04-07T13:06:13;4.70;;;4.03;;
5981;SDS011;3018;48.730;9.336;2023-04-07T13:08:39;4.22;;;3.80;;
5981;SDS011;3018;48.730;9.336;2023-04-07T13:11:06;5.80;;;4.60;;
5981;SDS011;3018;48.730;9.336;2023-04-07T13:13:32;4.78;;;3.60;;
5981;SDS011;3018;48.730;9.336;2023-04-07T13:15:58;4.05;;;2.67;;
5981;SDS011;3018;48.730;9.336;2023-04-07T13:18:26;4.30;;;2.78;;
5981;SDS011;3018;48.730;9.336;2023-04-07T13:20:52;3.22;;;2.88;;
5981;SDS011;3018;48.730;9.336;2023-04-07T13:23:19;3.92;;;2.75;;
5981;SDS011;3018;48.730;9.336;2023-04-07T13:25:45;5.30;;;3.00;;
5981;SDS011;3018;48.730;9.336;2023-04-07T13:28:11;2.22;;;2.03;;
5981;SDS011;3018;48.730;9.336;2023-04-07T13:30:38;3.65;;;2.40;;
5981;SDS011;3018;48.730;9.336;2023-04-07T13:33:05;3.53;;;2.60;;
5981;SDS011;3018;48.730;9.336;2023-04-07T13:35:33;6.38;;;3.17;;
5981;SDS011;3018;48.730;9.336;2023-04-07T13:38:00;5.55;;;2.92;;
5981;SDS011;3018;48.730;9.336;2023-04-07T13:40:27;4.75;;;2.90;;
5981;SDS011;3018;48.730;9.336;2023-04-07T13:42:53;3.65;;;2.80;;
5981;SDS011;3018;48.730;9.336;2023-04-07T13:45:20;3.88;;;3.08;;
5981;SDS011;3018;48.730;9.336;2023-04-07T13:47:46;3.75;;;3.05;;
5981;SDS011;3018;48.730;9.336;2023-04-07T13:50:12;6.60;;;4.18;;
5981;SDS011;3018;48.730;9.336;2023-04-07T13:52:40;4.20;;;3.75;;
5981;SDS011;3018;48.730;9.336;2023-04-07T13:55:06;8.13;;;3.45;;
5981;SDS011;3018;48.730;9.336;2023-04-07T13:57:33;4.07;;;3.53;;
5981;SDS011;3018;48.730;9.336;2023-04-07T13:59:59;3.75;;;2.60;;
5981;SDS011;3018;48.730;9.336;2023-04-07T14:02:25;2.53;;;2.33;;
5981;SDS011;3018;48.730;9.336;2023-04-07T14:04:54;4.10;;;2.28;;
5981;SDS011;3018;48.730;9.336;2023-04-07T14:07:20;3.05;;;2.10;;
5981;SDS011;3018;48.730;9.336;2023-04-07T14:09:49;2.08;;;1.92;;
5981;SDS011;3018;48.730;9.336;2023-04-07T14:12:15;2.50;;;2.30;;
5981;SDS011;3018;48.730;9.336;2023-04-07T14:14:42;3.90;;;2.63;;
5981;SDS011;3018;48.730;9.336;2023-04-07T14:17:08;3.03;;;2.10;;
5981;SDS011;3018;48.730;9.336;2023-04-07T14:19:34;2.25;;;1.95;;
5981;SDS011;3018;48.730;9.336;2023-04-07T14:22:01;7.25;;;4.20;;
5981;SDS011;3018;48.730;9.336;2023-04-07T14:24:27;3.53;;;2.47;;
5981;SDS011;3018;48.730;9.336;2023-04-07T14:26:54;3.75;;;2.63;;
5981;SDS011;3018;48.730;9.336;2023-04-07T14:29:21;2.53;;;2.35;;
5981;SDS011;3018;48.730;9.336;2023-04-07T14:31:47;5.22;;;3.63;;
5981;SDS011;3018;48.730;9.336;2023-04-07T14:34:15;2.35;;;1.80;;
5981;SDS011;3018;48.730;9.336;2023-04-07T14:36:42;2.20;;;2.00;;
5981;SDS011;3018;48.730;9.336;2023-04-07T14:39:17;2.33;;;1.70;;
5981;SDS011;3018;48.730;9.336;2023-04-07T14:41:43;3.97;;;1.83;;
5981;SDS011;3018;48.730;9.336;2023-04-07T14:44:13;1.67;;;1.58;;
5981;SDS011;3018;48.730;9.336;2023-04-07T14:46:39;1.80;;;1.70;;
5981;SDS011;3018;48.730;9.336;2023-04-07T14:49:06;2.13;;;1.90;;
5981;SDS011;3018;48.730;9.336;2023-04-07T14:51:32;1.88;;;1.77;;
5981;SDS011;3018;48.730;9.336;2023-04-07T14:53:58;4.65;;;2.20;;
5981;SDS011;3018;48.730;9.336;2023-04-07T14:56:25;3.30;;;2.00;;
5981;SDS011;3018;48.730;9.336;2023-04-07T14:58:51;3.97;;;2.10;;
5981;SDS011;3018;48.730;9.336;2023-04-07T15:01:19;5.40;;;3.25;;
5981;SDS011;3018;48.730;9.336;2023-04-07T15:03:45;2.95;;;2.70;;
5981;SDS011;3018;48.730;9.336;2023-04-07T15:06:11;2.58;;;2.22;;
5981;SDS011;3018;48.730;9.336;2023-04-07T15:08:38;5.60;;;2.60;;
5981;SDS011;3018;48.730;9.336;2023-04-07T15:11:04;3.53;;;2.63;;
5981;SDS011;3018;48.730;9.336;2023-04-07T15:13:31;3.33;;;2.20;;
5981;SDS011;3018;48.730;9.336;2023-04-07T15:16:04;4.00;;;2.35;;
5981;SDS011;3018;48.730;9.336;2023-04-07T15:18:32;3.55;;;2.88;;
5981;SDS011;3018;48.730;9.336;2023-04-07T15:20:58;3.65;;;2.40;;
5981;SDS011;3018;48.730;9.336;2023-04-07T15:23:24;2.60;;;2.40;;